Time;durP1;ratioP1;P1;durP2;ratioP2;P2;SDS_P1;SDS_P2;PMS_P1;PMS_P2;Temp;Humidity;BMP_temperature;BMP_pressure;BME280_temperature;BME280_humidity;BME280_pressure;Samples;Min_cycle;Max_cycle;Signal;HPM_P1;HPM_P2
2024/01/13 00:00:51;;;;;;;5.38;3.85;;;20.80;65.10;;;;;;5041654;28;20189;-82
2024/01/13 00:03:18;;;;;;;4.88;3.90;;;20.80;65.30;;;;;;5038567;28;20205;-85
2024/01/13 00:05:44;;;;;;;5.32;4.53;;;20.80;65.20;;;;;;5036968;28;20194;-85
2024/01/13 00:08:12;;;;;;;5.07;4.10;;;20.80;65.20;;;;;;5037315;28;20195;-85
2024/01/13 00:10:39;;;;;;;4.63;3.85;;;20.80;65.20;;;;;;5034683;28;20199;-85
2024/01/13 00:13:08;;;;;;;5.50;4.63;;;20.80;65.20;;;;;;5038708;28;20220;-84
2024/01/13 00:15:34;;;;;;;5.97;4.07;;;20.80;65.30;;;;;;5040586;28;20610;-85
2024/01/13 00:18:01;;;;;;;6.18;3.95;;;20.80;65.30;;;;;;5040238;28;20457;-85
2024/01/13 00:20:28;;;;;;;7.68;3.90;;;20.80;65.20;;;;;;5041858;28;20681;-84
2024/01/13 00:22:55;;;;;;;6.68;4.20;;;20.80;65.20;;;;;;5043605;28;20214;-83
2024/01/13 00:25:23;;;;;;;4.70;3.87;;;20.80;65.20;;;;;;5042279;28;20569;-85
2024/01/13 00:27:49;;;;;;;4.40;3.70;;;20.80;65.30;;;;;;5039561;28;20461;-84
2024/01/13 00:30:16;;;;;;;5.25;4.00;;;20.80;65.30;;;;;;5041548;28;20457;-83
2024/01/13 00:32:43;;;;;;;4.83;3.80;;;20.80;65.30;;;;;;5039414;28;20230;-84
2024/01/13 00:35:11;;;;;;;6.03;4.05;;;20.80;65.30;;;;;;5039034;28;20466;-84
2024/01/13 00:37:37;;;;;;;5.53;3.90;;;20.80;65.30;;;;;;5042531;28;21316;-85
2024/01/13 00:40:05;;;;;;;4.32;3.50;;;20.80;65.30;;;;;;5041868;28;20577;-85
2024/01/13 00:42:33;;;;;;;7.32;4.18;;;20.80;65.30;;;;;;5041758;28;20199;-87
2024/01/13 00:45:00;;;;;;;4.28;3.88;;;20.80;65.30;;;;;;5041303;28;20828;-85
2024/01/13 00:47:27;;;;;;;4.10;3.40;;;20.80;65.40;;;;;;5020778;28;20225;-82
2024/01/13 00:49:53;;;;;;;4.40;4.00;;;20.80;65.50;;;;;;5021302;28;20196;-86
2024/01/13 00:52:20;;;;;;;4.00;3.40;;;20.80;65.60;;;;;;5022119;28;20585;-85
2024/01/13 00:54:47;;;;;;;5.15;3.88;;;20.90;65.70;;;;;;5020684;28;20206;-84
2024/01/13 00:57:14;;;;;;;3.63;3.13;;;20.90;65.30;;;;;;5017415;28;21273;-85
2024/01/13 00:59:42;;;;;;;7.03;3.83;;;20.80;65.10;;;;;;5021871;28;20221;-85
2024/01/13 01:02:09;;;;;;;4.47;3.80;;;20.80;65.00;;;;;;5021732;28;20469;-84
2024/01/13 01:04:36;;;;;;;4.05;3.45;;;20.80;64.90;;;;;;5021657;28;20203;-82
2024/01/13 01:07:02;;;;;;;6.23;4.10;;;20.80;64.90;;;;;;5021717;28;20676;-84
2024/01/13 01:09:29;;;;;;;4.68;3.70;;;20.80;64.90;;;;;;5021158;28;21266;-84
2024/01/13 01:11:56;;;;;;;5.80;4.57;;;20.80;65.00;;;;;;5020632;28;20214;-85
2024/01/13 01:14:23;;;;;;;3.50;3.13;;;20.80;65.00;;;;;;5021987;28;20206;-84
2024/01/13 01:16:51;;;;;;;6.23;3.53;;;20.80;65.00;;;;;;5021295;28;20193;-84
2024/01/13 01:19:17;;;;;;;4.75;4.30;;;20.80;65.00;;;;;;5022262;28;20486;-84
2024/01/13 01:21:44;;;;;;;5.60;4.20;;;20.80;65.00;;;;;;5020539;28;20201;-84
2024/01/13 01:24:11;;;;;;;4.80;4.05;;;20.80;64.90;;;;;;5018892;28;20212;-83
2024/01/13 01:26:38;;;;;;;4.90;4.50;;;20.80;64.90;;;;;;5019060;28;20207;-84
2024/01/13 01:29:04;;;;;;;4.43;3.40;;;20.80;65.00;;;;;;5021242;28;21081;-84
2024/01/13 01:31:31;;;;;;;3.50;3.05;;;20.80;64.90;;;;;;5019990;28;20461;-83
2024/01/13 01:34:00;;;;;;;4.50;3.88;;;20.80;65.00;;;;;;5021592;28;20247;-83
2024/01/13 01:36:26;;;;;;;5.88;3.50;;;20.80;64.90;;;;;;5019668;28;20238;-83
2024/01/13 01:38:53;;;;;;;4.30;3.90;;;20.80;64.90;;;;;;5020259;28;20219;-83
2024/01/13 01:41:21;;;;;;;4.15;3.75;;;20.80;64.90;;;;;;5019922;28;20209;-84
2024/01/13 01:43:48;;;;;;;4.72;3.55;;;20.80;65.00;;;;;;5020214;28;20208;-83
2024/01/13 01:46:16;;;;;;;5.28;3.85;;;20.80;65.00;;;;;;5019802;28;20196;-83
2024/01/13 01:48:44;;;;;;;3.50;3.20;;;20.80;65.00;;;;;;5021802;28;20751;-83
2024/01/13 01:51:14;;;;;;;4.05;3.08;;;20.80;65.00;;;;;;5018846;28;20211;-83
2024/01/13 01:53:42;;;;;;;4.80;4.30;;;20.80;65.00;;;;;;5016882;28;20205;-84
2024/01/13 01:56:14;;;;;;;3.85;3.08;;;20.80;65.00;;;;;;5018506;28;20204;-83
2024/01/13 01:58:42;;;;;;;3.38;3.00;;;20.80;65.00;;;;;;5017759;28;20562;-84
2024/01/13 02:01:09;;;;;;;4.10;3.40;;;20.80;65.00;;;;;;5019602;28;20205;-83
2024/01/13 02:03:37;;;;;;;4.10;3.50;;;20.80;65.00;;;;;;5020750;28;20689;-84
2024/01/13 02:06:06;;;;;;;4.85;3.53;;;20.80;65.00;;;;;;5018775;28;20206;-83
2024/01/13 02:08:34;;;;;;;6.85;4.43;;;20.80;65.00;;;;;;5018731;28;20203;-84
2024/01/13 02:11:01;;;;;;;3.78;3.13;;;20.80;65.00;;;;;;5020609;28;20203;-84
2024/01/13 02:13:27;;;;;;;4.10;3.17;;;20.80;65.00;;;;;;5019768;28;20214;-84
2024/01/13 02:15:54;;;;;;;4.07;3.67;;;20.80;65.00;;;;;;5021168;28;20192;-84
2024/01/13 02:18:21;;;;;;;3.15;2.85;;;20.80;65.00;;;;;;5027110;28;20666;-84
2024/01/13 02:20:48;;;;;;;4.03;3.53;;;20.80;65.00;;;;;;5031117;28;20315;-83
2024/01/13 02:23:16;;;;;;;4.28;2.97;;;20.80;64.90;;;;;;5030409;28;20215;-83
2024/01/13 02:25:43;;;;;;;3.60;3.30;;;20.80;65.00;;;;;;5029881;28;20203;-83
2024/01/13 02:28:12;;;;;;;4.30;3.57;;;20.80;64.90;;;;;;5026235;28;20210;-84
2024/01/13 02:30:39;;;;;;;3.80;3.30;;;20.80;65.00;;;;;;5020040;28;20469;-83
2024/01/13 02:33:06;;;;;;;4.78;3.70;;;20.70;64.90;;;;;;5019420;28;20210;-85
2024/01/13 02:35:32;;;;;;;3.73;3.33;;;20.70;64.90;;;;;;5019208;28;20276;-83
2024/01/13 02:37:59;;;;;;;3.65;3.00;;;20.80;64.90;;;;;;5017507;28;21191;-84
2024/01/13 02:40:27;;;;;;;3.67;2.95;;;20.80;64.90;;;;;;5019073;28;21161;-84
2024/01/13 02:42:54;;;;;;;3.15;2.90;;;20.70;64.90;;;;;;5021006;28;20200;-83
2024/01/13 02:45:21;;;;;;;4.00;3.60;;;20.70;65.00;;;;;;5021069;28;20196;-83
2024/01/13 02:47:54;;;;;;;4.22;3.60;;;20.80;65.00;;;;;;5019581;28;20209;-83
2024/01/13 02:50:21;;;;;;;3.45;2.83;;;20.80;65.00;;;;;;5021096;28;20195;-86
2024/01/13 02:52:48;;;;;;;4.38;3.97;;;20.70;64.80;;;;;;5016979;28;20841;-84
2024/01/13 02:55:14;;;;;;;4.55;3.47;;;20.80;65.00;;;;;;5019566;28;20199;-84
2024/01/13 02:57:43;;;;;;;3.55;3.25;;;20.80;65.00;;;;;;5019946;28;20203;-84
2024/01/13 03:00:10;;;;;;;3.35;3.03;;;20.70;64.90;;;;;;5018374;28;20223;-84
2024/01/13 03:02:39;;;;;;;3.20;2.90;;;20.80;65.00;;;;;;5018588;28;20199;-84
2024/01/13 03:05:09;;;;;;;5.30;3.90;;;20.80;64.90;;;;;;5018500;28;20677;-85
2024/01/13 03:07:35;;;;;;;3.88;3.15;;;20.70;64.90;;;;;;5019335;28;20195;-84
2024/01/13 03:10:02;;;;;;;3.45;3.08;;;20.80;65.00;;;;;;5017375;28;20217;-83
2024/01/13 03:12:29;;;;;;;3.70;3.40;;;20.70;64.80;;;;;;5017485;28;20208;-85
2024/01/13 03:14:58;;;;;;;3.47;3.17;;;20.80;64.90;;;;;;5018187;28;20658;-85
2024/01/13 03:17:25;;;;;;;5.07;3.92;;;20.70;64.80;;;;;;5018267;28;20208;-85
2024/01/13 03:19:54;;;;;;;3.58;3.28;;;20.80;64.90;;;;;;5020253;28;20218;-86
2024/01/13 03:22:21;;;;;;;4.10;2.90;;;20.80;65.00;;;;;;5020263;28;20680;-85
2024/01/13 03:24:48;;;;;;;3.50;3.20;;;20.70;64.90;;;;;;5020861;28;20190;-84
2024/01/13 03:27:15;;;;;;;4.05;3.22;;;20.70;64.90;;;;;;5019055;28;20215;-83
2024/01/13 03:29:42;;;;;;;3.58;3.25;;;20.80;65.00;;;;;;5021554;28;20192;-83
2024/01/13 03:32:10;;;;;;;3.58;2.67;;;20.70;65.00;;;;;;5017534;28;20199;-83
2024/01/13 03:34:36;;;;;;;4.53;3.17;;;20.70;64.90;;;;;;5018981;28;20215;-83
2024/01/13 03:37:04;;;;;;;3.25;2.95;;;20.70;64.90;;;;;;5019807;28;21051;-83
2024/01/13 03:39:30;;;;;;;3.63;3.33;;;20.70;64.90;;;;;;5018028;28;20220;-83
2024/01/13 03:41:57;;;;;;;4.05;3.55;;;20.80;65.00;;;;;;5018567;28;20332;-83
2024/01/13 03:44:24;;;;;;;3.30;2.92;;;20.70;64.90;;;;;;5023969;28;20206;-83
2024/01/13 03:46:51;;;;;;;4.63;3.58;;;20.80;65.00;;;;;;5018882;28;20204;-83
2024/01/13 03:49:19;;;;;;;3.08;2.72;;;20.70;64.90;;;;;;5026785;28;20302;-83
2024/01/13 03:51:46;;;;;;;4.00;3.40;;;20.70;64.90;;;;;;5022075;28;20203;-83
2024/01/13 03:54:13;;;;;;;3.50;3.20;;;20.80;65.00;;;;;;5022711;28;20204;-83
2024/01/13 03:56:39;;;;;;;3.78;2.80;;;20.80;65.00;;;;;;5021883;28;20558;-83
2024/01/13 03:59:06;;;;;;;3.20;2.90;;;20.70;64.90;;;;;;5024321;28;20682;-84
2024/01/13 04:01:33;;;;;;;2.80;2.60;;;20.70;64.90;;;;;;5020148;28;20220;-84
2024/01/13 04:04:00;;;;;;;3.10;2.80;;;20.80;65.00;;;;;;5022478;28;20210;-83
2024/01/13 04:06:28;;;;;;;3.45;3.15;;;20.70;64.90;;;;;;5024148;28;20202;-84
2024/01/13 04:08:55;;;;;;;2.88;2.67;;;20.80;64.90;;;;;;5023259;28;20210;-83
2024/01/13 04:11:22;;;;;;;3.22;2.72;;;20.80;65.00;;;;;;5023165;28;20196;-84
2024/01/13 04:13:48;;;;;;;4.43;2.63;;;20.80;65.00;;;;;;5022659;28;20207;-83
2024/01/13 04:16:15;;;;;;;3.20;3.00;;;20.70;64.90;;;;;;5021801;28;20202;-83
2024/01/13 04:18:42;;;;;;;3.20;2.90;;;20.70;64.90;;;;;;5023092;28;20213;-84
2024/01/13 04:21:09;;;;;;;3.75;3.45;;;20.70;64.90;;;;;;5023123;28;20807;-84
2024/01/13 04:23:37;;;;;;;3.05;2.75;;;20.80;64.90;;;;;;5022001;28;20218;-84
2024/01/13 04:26:04;;;;;;;3.20;2.90;;;20.70;64.90;;;;;;5025310;28;20210;-84
2024/01/13 04:28:31;;;;;;;3.08;2.85;;;20.70;64.80;;;;;;5023390;28;20688;-84
2024/01/13 04:30:57;;;;;;;3.85;3.28;;;20.70;64.90;;;;;;5021605;28;20207;-83
2024/01/13 04:33:24;;;;;;;3.10;2.70;;;20.70;64.80;;;;;;5021773;28;20203;-84
2024/01/13 04:35:51;;;;;;;4.07;3.35;;;20.70;64.90;;;;;;5021797;28;20207;-83
2024/01/13 04:38:18;;;;;;;3.38;2.97;;;20.70;65.10;;;;;;5019993;28;20199;-84
2024/01/13 04:40:47;;;;;;;3.25;2.83;;;20.70;64.90;;;;;;5020093;28;20224;-84
2024/01/13 04:43:14;;;;;;;4.05;3.13;;;20.70;64.90;;;;;;5019440;28;20211;-84
2024/01/13 04:45:40;;;;;;;4.10;2.70;;;20.70;64.90;;;;;;5019091;28;20213;-84
2024/01/13 04:48:07;;;;;;;4.03;3.20;;;20.70;64.90;;;;;;5018949;28;20286;-84
2024/01/13 04:50:34;;;;;;;3.50;3.20;;;20.70;64.90;;;;;;5019478;28;20200;-84
2024/01/13 04:53:01;;;;;;;3.92;3.10;;;20.70;64.90;;;;;;5019551;28;20214;-83
2024/01/13 04:55:28;;;;;;;3.72;3.42;;;20.70;64.90;;;;;;5019077;28;20206;-83
2024/01/13 04:57:56;;;;;;;3.37;2.77;;;20.70;64.90;;;;;;5019584;28;20686;-84
2024/01/13 05:00:22;;;;;;;3.30;3.03;;;20.70;64.90;;;;;;5019568;28;20873;-84
2024/01/13 05:02:49;;;;;;;3.88;3.58;;;20.70;64.80;;;;;;5021287;28;20223;-83
2024/01/13 05:05:16;;;;;;;3.47;2.92;;;20.70;64.90;;;;;;5019618;28;20226;-84
2024/01/13 05:07:43;;;;;;;3.00;2.70;;;20.70;64.90;;;;;;5020753;28;20579;-83
2024/01/13 05:10:10;;;;;;;2.50;2.30;;;20.70;64.90;;;;;;5021936;28;20832;-83
2024/01/13 05:12:36;;;;;;;3.95;3.08;;;20.70;64.90;;;;;;5021461;28;21470;-83
2024/01/13 05:15:07;;;;;;;3.20;2.90;;;20.70;64.90;;;;;;5021160;28;20195;-84
2024/01/13 05:17:34;;;;;;;4.70;2.95;;;20.70;64.90;;;;;;5017853;28;20212;-84
2024/01/13 05:20:01;;;;;;;2.53;2.33;;;20.70;64.90;;;;;;5019686;28;20219;-84
2024/01/13 05:22:28;;;;;;;3.60;3.30;;;20.70;64.90;;;;;;5020207;28;20235;-84
2024/01/13 05:24:54;;;;;;;2.60;2.40;;;20.70;64.90;;;;;;5018409;28;20564;-85
2024/01/13 05:27:21;;;;;;;3.40;3.10;;;20.70;64.90;;;;;;5020929;28;20485;-84
2024/01/13 05:29:48;;;;;;;3.22;2.92;;;20.70;65.00;;;;;;5020316;28;20203;-84
2024/01/13 05:32:16;;;;;;;2.90;2.60;;;20.70;64.90;;;;;;5019494;28;20200;-85
2024/01/13 05:34:43;;;;;;;3.28;2.97;;;20.70;64.90;;;;;;5019789;28;20207;-85
2024/01/13 05:37:09;;;;;;;4.82;2.90;;;20.70;64.90;;;;;;5018509;28;20214;-85
2024/01/13 05:39:36;;;;;;;3.13;2.85;;;20.70;65.00;;;;;;5020720;28;20211;-87
2024/01/13 05:42:03;;;;;;;3.55;3.10;;;20.70;65.00;;;;;;5020280;28;20249;-86
2024/01/13 05:44:30;;;;;;;3.15;2.35;;;20.80;65.00;;;;;;5018374;28;20199;-84
2024/01/13 05:46:57;;;;;;;3.80;3.17;;;20.70;65.00;;;;;;5018889;28;21880;-84
2024/01/13 05:49:25;;;;;;;3.63;3.33;;;20.70;64.90;;;;;;5019300;28;20205;-85
2024/01/13 05:51:51;;;;;;;3.40;3.10;;;20.70;64.90;;;;;;5017517;28;20456;-84
2024/01/13 05:54:18;;;;;;;3.15;2.63;;;20.70;65.00;;;;;;5017833;28;20203;-85
2024/01/13 05:56:45;;;;;;;2.70;2.50;;;20.70;64.90;;;;;;5017863;28;20231;-83
2024/01/13 05:59:12;;;;;;;2.92;2.60;;;20.70;64.90;;;;;;5019251;28;20214;-84
2024/01/13 06:01:39;;;;;;;3.03;2.72;;;20.70;65.70;;;;;;5017965;28;20215;-83
2024/01/13 06:04:05;;;;;;;3.75;2.95;;;20.70;64.90;;;;;;5017579;28;20233;-85
2024/01/13 06:06:34;;;;;;;3.28;2.85;;;20.70;64.90;;;;;;5018615;28;20211;-85
2024/01/13 06:09:01;;;;;;;3.20;2.83;;;20.70;64.90;;;;;;5018799;28;22993;-85
2024/01/13 06:11:28;;;;;;;3.05;2.40;;;20.70;64.90;;;;;;5017976;28;20984;-87
2024/01/13 06:13:56;;;;;;;4.43;2.70;;;20.70;64.90;;;;;;5018574;28;20202;-87
2024/01/13 06:16:23;;;;;;;3.67;2.50;;;20.70;64.90;;;;;;5018174;28;20208;-84
2024/01/13 06:18:49;;;;;;;3.42;3.13;;;20.70;64.90;;;;;;5018300;28;20203;-85
2024/01/13 06:21:16;;;;;;;3.90;3.20;;;20.70;64.90;;;;;;5018281;28;20736;-85
2024/01/13 06:23:45;;;;;;;4.32;3.70;;;20.70;64.90;;;;;;5019100;28;20670;-85
2024/01/13 06:26:12;;;;;;;3.13;2.83;;;20.70;64.90;;;;;;5021057;28;20204;-84
2024/01/13 06:28:39;;;;;;;4.80;3.13;;;20.70;64.90;;;;;;5019932;28;20204;-85
2024/01/13 06:31:06;;;;;;;3.33;2.75;;;20.70;64.90;;;;;;5021112;28;21817;-84
2024/01/13 06:33:32;;;;;;;3.53;3.17;;;20.70;64.90;;;;;;5017259;28;30024;-85
2024/01/13 06:35:59;;;;;;;3.15;2.40;;;20.70;64.90;;;;;;5016916;28;20457;-85
2024/01/13 06:38:26;;;;;;;3.45;2.30;;;20.70;64.90;;;;;;5019582;28;20200;-84
2024/01/13 06:40:55;;;;;;;2.60;2.40;;;20.70;64.90;;;;;;5020203;28;20265;-84
2024/01/13 06:43:22;;;;;;;4.35;2.65;;;20.70;64.90;;;;;;5020623;28;20211;-85
2024/01/13 06:45:48;;;;;;;3.42;3.13;;;20.70;64.90;;;;;;5019385;28;20191;-84
2024/01/13 06:48:15;;;;;;;3.13;2.83;;;20.70;64.90;;;;;;5017895;28;20206;-85
2024/01/13 06:50:42;;;;;;;2.80;2.60;;;20.70;64.90;;;;;;5016329;28;20220;-84
2024/01/13 06:53:09;;;;;;;3.72;3.08;;;20.70;64.90;;;;;;5015791;28;20200;-84
2024/01/13 06:55:36;;;;;;;3.25;2.97;;;20.70;65.00;;;;;;5016776;28;20197;-83
2024/01/13 06:58:04;;;;;;;2.83;2.50;;;20.70;64.90;;;;;;5019489;28;20246;-84
2024/01/13 07:00:31;;;;;;;2.50;2.30;;;20.70;64.90;;;;;;5018801;28;20191;-83
2024/01/13 07:02:57;;;;;;;3.13;2.50;;;20.70;64.90;;;;;;5017834;28;20214;-84
2024/01/13 07:05:24;;;;;;;2.90;2.60;;;20.70;64.90;;;;;;5017414;28;20226;-83
2024/01/13 07:07:51;;;;;;;2.83;2.17;;;20.70;64.90;;;;;;5018224;28;20199;-83
2024/01/13 07:10:18;;;;;;;2.85;2.58;;;20.70;65.00;;;;;;5017114;28;20203;-84
2024/01/13 07:12:47;;;;;;;3.50;2.80;;;20.70;65.50;;;;;;5018185;28;20200;-83
2024/01/13 07:15:15;;;;;;;3.13;2.72;;;20.70;64.90;;;;;;5018844;28;20206;-84
2024/01/13 07:17:42;;;;;;;3.08;2.78;;;20.60;64.70;;;;;;5017046;28;20586;-84
2024/01/13 07:20:09;;;;;;;3.10;2.72;;;20.60;64.70;;;;;;5018093;28;20762;-83
2024/01/13 07:22:36;;;;;;;2.90;2.42;;;20.60;64.70;;;;;;5018925;28;22775;-84
2024/01/13 07:25:03;;;;;;;3.25;2.95;;;20.60;64.80;;;;;;5023484;28;20207;-85
2024/01/13 07:27:30;;;;;;;5.68;2.40;;;20.60;64.80;;;;;;5023711;28;20290;-82
2024/01/13 07:29:56;;;;;;;6.55;2.90;;;20.60;65.40;;;;;;5022179;28;20225;-84
2024/01/13 07:32:25;;;;;;;3.17;2.88;;;20.60;65.60;;;;;;5027410;28;20205;-82
2024/01/13 07:34:51;;;;;;;2.80;2.60;;;20.60;65.70;;;;;;5020071;28;20196;-83
2024/01/13 07:37:20;;;;;;;3.67;2.92;;;20.70;65.90;;;;;;5022490;28;20216;-88
2024/01/13 07:39:46;;;;;;;3.75;2.42;;;20.60;65.90;;;;;;5023833;28;20734;-87
2024/01/13 07:42:13;;;;;;;4.82;2.47;;;20.70;66.20;;;;;;5021964;28;21648;-82
2024/01/13 07:44:42;;;;;;;2.55;2.13;;;20.60;66.80;;;;;;5024896;28;20314;-82
2024/01/13 07:47:09;;;;;;;2.70;2.45;;;20.60;66.00;;;;;;5023117;28;20199;-86
2024/01/13 07:49:37;;;;;;;3.42;2.40;;;20.70;66.00;;;;;;5022676;28;20202;-82
2024/01/13 07:52:05;;;;;;;2.65;2.28;;;20.60;65.90;;;;;;5021108;28;20233;-85
2024/01/13 07:54:33;;;;;;;2.72;2.38;;;20.60;65.90;;;;;;5023906;28;20671;-83
2024/01/13 07:57:00;;;;;;;7.18;2.00;;;20.70;66.00;;;;;;5024101;28;20606;-83
2024/01/13 07:59:27;;;;;;;2.45;2.25;;;20.70;66.00;;;;;;5022518;28;20199;-85
2024/01/13 08:01:53;;;;;;;3.63;2.40;;;20.70;65.90;;;;;;5021482;28;20221;-85
2024/01/13 08:04:20;;;;;;;3.05;2.10;;;20.70;65.90;;;;;;5023714;28;20210;-85
2024/01/13 08:06:48;;;;;;;3.08;2.80;;;20.70;65.90;;;;;;5022566;28;20211;-85
2024/01/13 08:09:17;;;;;;;3.13;2.33;;;20.70;65.90;;;;;;5021244;28;20676;-85
2024/01/13 08:11:44;;;;;;;3.40;2.90;;;20.70;65.90;;;;;;5020602;28;20282;-85
2024/01/13 08:14:11;;;;;;;3.13;2.70;;;20.70;65.90;;;;;;5020794;28;20203;-86
2024/01/13 08:16:37;;;;;;;2.60;2.40;;;20.70;65.70;;;;;;5019087;28;20544;-84
2024/01/13 08:19:03;;;;;;;3.17;2.88;;;20.70;65.70;;;;;;5022954;28;20650;-84
2024/01/13 08:21:30;;;;;;;3.22;2.92;;;20.70;65.70;;;;;;5018524;28;20591;-85
2024/01/13 08:23:58;;;;;;;2.80;2.08;;;20.70;65.60;;;;;;5019758;28;20882;-83
2024/01/13 08:26:27;;;;;;;2.45;2.00;;;20.70;65.60;;;;;;5021775;28;20204;-83
2024/01/13 08:28:54;;;;;;;3.00;2.70;;;20.70;65.50;;;;;;5019428;28;20207;-83
2024/01/13 08:31:20;;;;;;;3.17;2.40;;;20.70;65.60;;;;;;5017785;28;20207;-83
2024/01/13 08:33:47;;;;;;;2.50;2.30;;;20.70;65.40;;;;;;5021682;28;20832;-84
2024/01/13 08:36:14;;;;;;;4.97;2.53;;;20.70;65.40;;;;;;5022583;28;20204;-84
2024/01/13 08:38:43;;;;;;;2.45;2.25;;;20.70;65.30;;;;;;5023661;28;21111;-83
2024/01/13 08:41:11;;;;;;;2.42;2.20;;;20.70;65.30;;;;;;5023481;28;20217;-84
2024/01/13 08:43:40;;;;;;;2.63;2.42;;;20.60;65.10;;;;;;5021203;28;20199;-85
2024/01/13 08:46:07;;;;;;;3.25;2.70;;;20.60;65.20;;;;;;5021515;28;20318;-85
2024/01/13 08:48:34;;;;;;;2.30;2.10;;;20.60;65.20;;;;;;5021667;28;20206;-85
2024/01/13 08:51:01;;;;;;;2.55;2.35;;;20.60;65.20;;;;;;5020112;28;20196;-85
2024/01/13 08:53:28;;;;;;;2.57;2.37;;;20.60;65.30;;;;;;5020723;28;20214;-86
2024/01/13 08:55:56;;;;;;;2.55;2.10;;;20.60;65.30;;;;;;5021447;28;20494;-92
2024/01/13 08:58:40;;;;;;;2.90;2.53;;;20.60;65.40;;;;;;5023144;28;20206;-91
2024/01/13 09:01:07;;;;;;;4.32;2.63;;;20.60;65.70;;;;;;5021296;28;20199;-92
2024/01/13 09:03:34;;;;;;;2.65;2.40;;;20.60;66.00;;;;;;5019980;28;20230;-86
2024/01/13 09:06:01;;;;;;;2.92;2.38;;;20.70;66.40;;;;;;5012394;28;20215;-92
2024/01/13 09:08:28;;;;;;;3.40;2.10;;;20.70;66.50;;;;;;5003193;28;20195;-88
2024/01/13 09:10:55;;;;;;;3.15;2.63;;;20.70;66.60;;;;;;5009984;28;20210;-90
2024/01/13 09:13:21;;;;;;;2.60;2.40;;;20.80;66.60;;;;;;5013888;28;20204;-88
2024/01/13 09:15:50;;;;;;;2.55;2.33;;;20.80;66.50;;;;;;5006003;28;20203;-90
2024/01/13 09:18:16;;;;;;;2.35;2.15;;;20.90;66.70;;;;;;5001816;28;20211;-88
2024/01/13 09:20:43;;;;;;;2.92;2.22;;;20.90;66.80;;;;;;5004806;28;20206;-87
2024/01/13 09:23:11;;;;;;;3.40;2.40;;;20.90;66.80;;;;;;5016650;28;20304;-86
2024/01/13 09:25:37;;;;;;;2.80;1.92;;;20.90;67.90;;;;;;5015380;28;22703;-87
2024/01/13 09:28:05;;;;;;;2.10;1.90;;;20.90;67.20;;;;;;5005540;28;32527;-85
2024/01/13 09:30:31;;;;;;;3.10;2.80;;;20.90;67.00;;;;;;5006869;28;20505;-88
2024/01/13 09:33:00;;;;;;;2.10;1.87;;;21.00;67.20;;;;;;4998159;28;20461;-89
2024/01/13 09:35:30;;;;;;;2.50;2.23;;;21.00;66.80;;;;;;4926962;28;20515;-84
2024/01/13 09:37:57;;;;;;;3.27;2.30;;;21.00;66.50;;;;;;4925548;28;20463;-85
2024/01/13 09:40:25;;;;;;;2.60;2.23;;;21.00;66.50;;;;;;4917796;28;21565;-87
2024/01/13 09:43:04;;;;;;;3.00;2.43;;;21.00;67.10;;;;;;4911488;28;21264;-85
2024/01/13 09:45:33;;;;;;;3.40;2.53;;;21.00;66.20;;;;;;4907196;28;20514;-85
2024/01/13 09:48:04;;;;;;;2.53;2.33;;;21.00;66.50;;;;;;4920125;28;20450;-84
2024/01/13 09:50:31;;;;;;;2.47;2.07;;;21.00;66.30;;;;;;4910172;28;20576;-84
2024/01/13 09:53:01;;;;;;;3.00;2.13;;;21.10;67.80;;;;;;4912721;28;20575;-85
2024/01/13 09:55:29;;;;;;;2.20;2.00;;;20.70;65.50;;;;;;4915562;28;21948;-84
2024/01/13 09:57:58;;;;;;;2.10;1.90;;;21.00;65.40;;;;;;4910905;28;20458;-88
2024/01/13 10:00:30;;;;;;;2.63;2.43;;;21.10;66.00;;;;;;4901256;28;27590;-86
2024/01/13 10:02:57;;;;;;;2.73;1.93;;;21.10;65.90;;;;;;4904885;28;20526;-84
2024/01/13 10:05:29;;;;;;;2.10;1.90;;;21.10;65.80;;;;;;4897056;28;20491;-84
2024/01/13 10:07:56;;;;;;;2.57;1.97;;;21.10;65.90;;;;;;4904532;28;20457;-84
2024/01/13 10:10:25;;;;;;;2.53;2.30;;;21.10;65.80;;;;;;4920594;28;20453;-84
2024/01/13 10:12:52;;;;;;;2.37;2.17;;;21.10;65.70;;;;;;4921213;28;20456;-85
2024/01/13 10:15:19;;;;;;;2.50;2.20;;;21.20;66.60;;;;;;4920001;28;20494;-84
2024/01/13 10:17:46;;;;;;;1.93;1.80;;;21.20;65.80;;;;;;4918169;28;20571;-84
2024/01/13 10:20:14;;;;;;;2.50;1.80;;;21.20;65.70;;;;;;4914502;28;20627;-84
2024/01/13 10:22:43;;;;;;;2.37;1.80;;;21.20;65.70;;;;;;4907328;28;20500;-84
2024/01/13 10:25:10;;;;;;;2.67;2.47;;;21.20;65.70;;;;;;4912067;28;20465;-85
2024/01/13 10:27:38;;;;;;;2.30;2.10;;;21.20;65.60;;;;;;4920802;28;20450;-86
2024/01/13 10:30:07;;;;;;;2.43;2.20;;;21.20;65.60;;;;;;4924776;28;21763;-84
2024/01/13 10:32:34;;;;;;;2.50;2.30;;;21.20;65.50;;;;;;4916440;28;20453;-84
2024/01/13 10:35:01;;;;;;;3.28;2.08;;;21.20;65.50;;;;;;4919781;28;20470;-84
2024/01/13 10:37:28;;;;;;;2.60;2.33;;;21.30;65.70;;;;;;4911171;28;20206;-85
2024/01/13 10:39:56;;;;;;;2.07;1.83;;;21.30;65.70;;;;;;4908336;28;23297;-85
2024/01/13 10:42:26;;;;;;;2.20;2.00;;;21.30;65.50;;;;;;4921406;28;21602;-86
2024/01/13 10:44:56;;;;;;;2.10;1.90;;;21.30;65.40;;;;;;4931147;28;20452;-87
2024/01/13 10:47:29;;;;;;;2.37;2.07;;;21.30;65.50;;;;;;4925717;28;20453;-85
2024/01/13 10:49:57;;;;;;;2.03;1.90;;;21.30;65.40;;;;;;4926529;28;20464;-85
2024/01/13 10:52:30;;;;;;;2.40;2.20;;;21.30;65.70;;;;;;4921484;28;20591;-86
2024/01/13 10:55:02;;;;;;;2.13;1.87;;;21.40;65.60;;;;;;4916568;28;20596;-89
2024/01/13 10:57:30;;;;;;;2.90;2.07;;;21.30;65.80;;;;;;4919326;28;20466;-89
2024/01/13 10:59:58;;;;;;;2.80;1.87;;;21.40;66.20;;;;;;4925180;28;20556;-87
2024/01/13 11:02:26;;;;;;;2.07;1.87;;;21.90;66.20;;;;;;4920566;28;20500;-87
2024/01/13 11:04:53;;;;;;;2.60;2.40;;;21.40;65.20;;;;;;4915443;28;20476;-88
2024/01/13 11:07:20;;;;;;;2.00;1.80;;;20.90;64.80;;;;;;4912884;28;20461;-86
2024/01/13 11:09:47;;;;;;;2.83;1.87;;;21.40;65.40;;;;;;4912549;28;20477;-86
2024/01/13 11:12:24;;;;;;;2.70;1.67;;;21.40;65.90;;;;;;4909162;28;20454;-85
2024/01/13 11:14:57;;;;;;;1.97;1.77;;;21.40;65.30;;;;;;4920311;28;20449;-86
2024/01/13 11:17:25;;;;;;;2.30;2.10;;;21.40;65.10;;;;;;4900924;28;20461;-85
2024/01/13 11:19:52;;;;;;;1.60;1.50;;;21.40;65.00;;;;;;4896671;28;20453;-85
2024/01/13 11:22:33;;;;;;;2.37;2.00;;;21.40;65.00;;;;;;4885206;28;20512;-84
2024/01/13 11:25:00;;;;;;;2.57;1.67;;;21.40;64.80;;;;;;4882931;28;20476;-83
2024/01/13 11:27:29;;;;;;;2.90;1.80;;;21.40;64.70;;;;;;4884045;28;20473;-84
2024/01/13 11:29:58;;;;;;;2.27;2.07;;;21.40;64.50;;;;;;4905633;28;20458;-84
2024/01/13 11:32:26;;;;;;;2.00;1.80;;;21.40;64.90;;;;;;4897527;28;20465;-82
2024/01/13 11:34:55;;;;;;;2.30;1.43;;;21.40;64.90;;;;;;4901501;28;20588;-83
2024/01/13 11:37:23;;;;;;;2.67;2.47;;;21.40;65.10;;;;;;4888976;28;21499;-83
2024/01/13 11:39:51;;;;;;;2.30;1.80;;;21.40;64.70;;;;;;4872044;28;20473;-82
2024/01/13 11:42:18;;;;;;;2.07;1.87;;;21.40;64.80;;;;;;4866121;28;20853;-83
2024/01/13 11:44:46;;;;;;;2.13;1.93;;;21.40;65.00;;;;;;4873113;28;20887;-83
2024/01/13 11:47:13;;;;;;;1.63;1.50;;;21.40;64.80;;;;;;4874218;28;20666;-84
2024/01/13 11:49:43;;;;;;;2.20;2.00;;;21.40;65.00;;;;;;4890357;28;20491;-83
2024/01/13 11:52:10;;;;;;;1.37;1.23;;;21.40;64.90;;;;;;4894219;28;21013;-83
2024/01/13 11:54:38;;;;;;;1.80;1.50;;;21.40;64.70;;;;;;4893024;28;20665;-82
2024/01/13 11:57:14;;;;;;;2.10;1.90;;;21.40;64.80;;;;;;4894852;28;27544;-83
2024/01/13 11:59:41;;;;;;;1.88;1.55;;;21.40;64.80;;;;;;4889543;28;20449;-84
2024/01/13 12:02:10;;;;;;;2.23;1.73;;;21.40;65.00;;;;;;4911750;28;20319;-85
2024/01/13 12:04:39;;;;;;;2.30;2.07;;;21.40;65.00;;;;;;5012658;28;20459;-83
2024/01/13 12:07:08;;;;;;;2.83;1.75;;;20.60;64.00;;;;;;4952097;28;20457;-83
2024/01/13 12:09:35;;;;;;;2.07;1.90;;;21.30;64.70;;;;;;4805798;28;20208;-83
2024/01/13 12:12:03;;;;;;;1.60;1.50;;;21.30;65.20;;;;;;4835097;28;20465;-84
2024/01/13 12:14:32;;;;;;;2.00;1.80;;;21.30;64.70;;;;;;4846337;28;29476;-84
2024/01/13 12:17:00;;;;;;;2.57;1.80;;;21.30;64.80;;;;;;4853431;28;20459;-85
2024/01/13 12:19:32;;;;;;;2.40;1.90;;;21.30;65.30;;;;;;4817413;28;20460;-84
2024/01/13 12:21:59;;;;;;;2.20;2.00;;;21.30;64.90;;;;;;4908894;28;21462;-83
2024/01/13 12:24:27;;;;;;;2.20;2.00;;;21.30;65.00;;;;;;4895351;28;20661;-85
2024/01/13 12:26:54;;;;;;;2.03;1.63;;;21.30;64.90;;;;;;4902562;28;20446;-84
2024/01/13 12:29:21;;;;;;;1.60;1.40;;;21.30;65.00;;;;;;4905464;28;21752;-83
2024/01/13 12:31:49;;;;;;;1.50;1.40;;;21.30;64.80;;;;;;4893367;28;20459;-83
2024/01/13 12:34:16;;;;;;;2.40;1.85;;;21.30;64.90;;;;;;4891677;28;20464;-84
2024/01/13 12:36:45;;;;;;;1.70;1.53;;;21.30;64.80;;;;;;4904572;28;20210;-84
2024/01/13 12:39:12;;;;;;;2.17;1.60;;;21.30;65.00;;;;;;4976882;28;20890;-85
2024/01/13 12:41:40;;;;;;;1.93;1.50;;;20.60;64.20;;;;;;4987642;28;20903;-85
2024/01/13 12:44:07;;;;;;;1.80;1.58;;;21.30;65.80;;;;;;4988904;28;20512;-85
2024/01/13 12:46:35;;;;;;;2.45;1.77;;;21.20;64.80;;;;;;4985983;28;20198;-86
2024/01/13 12:49:13;;;;;;;1.93;1.73;;;21.30;65.10;;;;;;4987492;28;20200;-84